MDST/STI METAR and TAF weather

Enter ICAO airport designator
Station Type Date Time Source
MDST METAR 2021/09/28 04:00 UTC NOAA

MDST 280400Z 00000KT 9999 FEW018CB SCT018 BKN300 27/25 Q1015 CB/NE/SW/N


Station Type Date Time Source
MDST Decoded METAR 2021/09/28 04:00 UTC NOAA

Santiago, Dominican Republic (MDST) 19-27N 070-42W
Sep 28, 2021 - 12:00 AM EDT / 2021.09.28 0400 UTC
Wind: Calm:0
Visibility: greater than 7 mile(s):0
Sky conditions: mostly cloudy
Weather: Cumulonimbus clouds observed
Temperature: 80 F (27 C)
Dew Point: 77 F (25 C)
Relative Humidity: 88%
Pressure (altimeter): 29.97 in. Hg (1015 hPa)
ob: MDST 280400Z 00000KT 9999 FEW018CB SCT018 BKN300 27/25 Q1015 CB/NE/SW/N
cycle: 4

Station Type Date Time Source
MDST TAF 2021/09/28 06:09 UTC NOAA

TAF MDST 280400Z 2806/2906 10008KT 9999 SCT018 PROB30 2806/2812 7000 -RA SCT016 BKN070

Example: see airport list